Time;durP1;ratioP1;P1;durP2;ratioP2;P2;SDS_P1;SDS_P2;PMS_P1;PMS_P2;Temp;Humidity;BMP_temperature;BMP_pressure;BME280_temperature;BME280_humidity;BME280_pressure;Samples;Min_cycle;Max_cycle;Signal;HPM_P1;HPM_P2
2023/04/07 00:01:57;;;;;;;35.40;17.90;;;;;;;6.17;73.96;98769.20;68316;1282;1016166;-60
2023/04/07 00:05:01;;;;;;;35.70;18.20;;;;;;;6.17;73.97;98766.79;68309;1282;1015759;-60
2023/04/07 00:08:04;;;;;;;35.30;18.40;;;;;;;6.36;72.64;98766.80;68319;1282;1016150;-60
2023/04/07 00:11:07;;;;;;;36.20;17.70;;;;;;;6.34;73.07;98765.66;68319;1282;1015969;-60
2023/04/07 00:14:10;;;;;;;35.10;17.60;;;;;;;6.42;72.47;98759.05;68320;1282;1015335;-60
2023/04/07 00:17:12;;;;;;;36.20;17.40;;;;;;;6.42;72.51;98757.34;68325;1282;1015378;-60
2023/04/07 00:20:14;;;;;;;32.80;16.10;;;;;;;6.40;72.60;98753.44;68299;1282;1015602;-60
2023/04/07 00:23:17;;;;;;;35.40;17.50;;;;;;;6.43;72.61;98758.70;68320;1282;1015746;-60
2023/04/07 00:26:19;;;;;;;32.10;16.10;;;;;;;6.50;72.10;98749.50;68326;1282;1016070;-60
2023/04/07 00:29:22;;;;;;;32.50;16.30;;;;;;;6.55;71.93;98746.48;68321;1282;1016039;-60
2023/04/07 00:32:25;;;;;;;33.50;15.70;;;;;;;6.56;71.77;98748.16;68309;1268;1015608;-60
2023/04/07 00:35:27;;;;;;;33.20;15.20;;;;;;;6.74;70.96;98748.57;68333;1282;1015360;-60
2023/04/07 00:38:30;;;;;;;33.60;15.80;;;;;;;6.77;71.08;98747.75;68320;1282;1015524;-60
2023/04/07 00:41:32;;;;;;;32.90;15.10;;;;;;;6.84;70.74;98751.08;68305;1282;1015585;-60
2023/04/07 00:44:35;;;;;;;33.30;15.70;;;;;;;6.76;71.14;98745.71;68312;1282;1016126;-60
2023/04/07 00:47:37;;;;;;;31.00;15.00;;;;;;;6.64;71.76;98742.29;68309;1282;1016213;-60
2023/04/07 00:50:39;;;;;;;32.70;14.90;;;;;;;6.58;72.08;98744.27;68302;1282;1015844;-60
2023/04/07 00:53:42;;;;;;;32.60;15.40;;;;;;;6.66;71.51;98738.54;68309;1282;1015600;-60
2023/04/07 00:56:44;;;;;;;32.80;15.00;;;;;;;6.70;71.43;98739.17;68312;1282;1015276;-60
2023/04/07 00:59:46;;;;;;;29.70;13.40;;;;;;;6.76;71.02;98738.57;68313;1282;1015649;-60
2023/04/07 01:02:49;;;;;;;30.40;15.00;;;;;;;6.76;70.97;98742.77;68322;1282;1016618;-60
2023/04/07 01:05:51;;;;;;;31.50;14.80;;;;;;;6.61;71.73;98741.16;68307;1282;1015336;-60
2023/04/07 01:08:53;;;;;;;29.50;13.00;;;;;;;6.64;71.27;98737.93;68305;1282;1014816;-60
2023/04/07 01:11:56;;;;;;;29.10;13.60;;;;;;;6.69;71.25;98733.88;68332;1282;1016195;-60
2023/04/07 01:14:58;;;;;;;27.60;12.80;;;;;;;6.72;70.96;98727.63;68313;1282;1015666;-60
2023/04/07 01:18:00;;;;;;;29.70;13.70;;;;;;;6.85;70.23;98724.61;68320;1282;1015400;-61
2023/04/07 01:21:03;;;;;;;30.40;13.60;;;;;;;6.85;70.41;98724.60;65725;1282;5385168;-60
2023/04/07 01:24:05;;;;;;;27.80;12.50;;;;;;;6.78;70.67;98725.63;68316;1282;1015439;-60
2023/04/07 01:27:09;;;;;;;27.70;12.30;;;;;;;6.84;70.27;98723.94;68303;1282;1015696;-60
2023/04/07 01:30:11;;;;;;;29.20;12.20;;;;;;;6.83;70.43;98727.84;68304;1282;1016066;-60
2023/04/07 01:33:13;;;;;;;29.20;12.70;;;;;;;6.92;69.72;98726.90;68310;1282;1016172;-60
2023/04/07 01:36:16;;;;;;;27.50;11.70;;;;;;;7.00;69.37;98721.48;68312;1259;1015740;-60
2023/04/07 01:39:18;;;;;;;28.90;11.60;;;;;;;7.04;69.10;98717.10;68320;1282;1015969;-60
2023/04/07 01:42:29;;;;;;;27.50;11.80;;;;;;;7.01;69.35;98718.27;68298;1282;1015344;-60
2023/04/07 01:45:31;;;;;;;27.90;11.40;;;;;;;6.93;69.79;98718.66;68311;1282;1015467;-60
2023/04/07 01:48:33;;;;;;;26.40;11.50;;;;;;;6.94;69.89;98718.77;68314;1282;1015677;-61
2023/04/07 01:51:36;;;;;;;25.40;11.40;;;;;;;7.01;69.44;98718.46;68317;1282;1014607;-60
2023/04/07 01:54:38;;;;;;;26.10;11.30;;;;;;;7.09;68.77;98715.11;68309;1282;1015647;-60
2023/04/07 01:57:41;;;;;;;25.30;10.80;;;;;;;7.02;69.29;98713.38;68321;1282;1015559;-60
2023/04/07 02:00:43;;;;;;;27.60;10.30;;;;;;;6.98;69.23;98714.25;68331;1282;1015500;-60
2023/04/07 02:03:45;;;;;;;27.50;10.10;;;;;;;6.97;69.42;98715.34;68319;1282;1015220;-60
2023/04/07 02:06:49;;;;;;;24.60;10.20;;;;;;;6.99;69.43;98714.39;66131;1282;2002754;-60
2023/04/07 02:09:51;;;;;;;24.40;9.30;;;;;;;6.99;69.42;98714.38;51600;1282;2014994;-60
2023/04/07 02:12:55;;;;;;;24.00;10.00;;;;;;;6.88;69.91;98709.33;51678;1282;2015356;-60
2023/04/07 02:15:57;;;;;;;23.90;9.90;;;;;;;6.82;70.56;98705.98;50909;1282;2006360;-60
2023/04/07 02:19:01;;;;;;;24.80;9.50;;;;;;;6.75;70.61;98701.75;50151;1282;2015870;-60
2023/04/07 02:22:05;;;;;;;24.40;9.50;;;;;;;6.93;70.02;98701.27;50163;1282;2015104;-60
2023/04/07 02:25:08;;;;;;;25.40;9.60;;;;;;;6.89;69.98;98702.48;52442;1282;2016038;-60
2023/04/07 02:28:11;;;;;;;24.60;9.80;;;;;;;6.86;70.27;98705.09;50153;1282;2015825;-60
2023/04/07 02:31:14;;;;;;;24.30;9.80;;;;;;;6.79;70.75;98704.89;50823;1282;2015885;-60
2023/04/07 02:34:17;;;;;;;24.60;9.90;;;;;;;6.82;70.62;98698.50;48636;1282;2015796;-60
2023/04/07 02:37:21;;;;;;;24.60;10.10;;;;;;;6.78;70.99;98699.02;50157;1282;2015302;-60
2023/04/07 02:40:23;;;;;;;25.20;8.90;;;;;;;6.76;71.06;98697.04;50840;1282;2015898;-60
2023/04/07 02:43:26;;;;;;;23.80;9.20;;;;;;;6.76;71.12;98688.55;50167;1282;2016078;-60
2023/04/07 02:46:28;;;;;;;27.70;9.70;;;;;;;6.77;71.10;98688.50;49415;1282;2015888;-60
2023/04/07 02:49:31;;;;;;;23.70;9.30;;;;;;;6.85;70.81;98691.09;52449;1282;2017244;-60
2023/04/07 02:52:33;;;;;;;24.20;9.30;;;;;;;6.70;71.28;98698.70;50917;1282;2015245;-60
2023/04/07 02:55:36;;;;;;;25.10;9.70;;;;;;;6.64;71.73;98700.40;49389;1282;2015328;-60
2023/04/07 02:58:38;;;;;;;24.90;9.50;;;;;;;6.63;71.80;98698.19;50167;1282;2015581;-60
2023/04/07 03:01:41;;;;;;;24.20;9.00;;;;;;;6.68;71.62;98695.65;47875;1265;2016276;-60
2023/04/07 03:04:43;;;;;;;24.80;9.00;;;;;;;6.55;72.78;98695.06;48642;1282;2015696;-60
2023/04/07 03:07:46;;;;;;;23.40;9.00;;;;;;;6.59;72.41;98702.87;50836;1282;2006600;-60
2023/04/07 03:10:48;;;;;;;25.10;9.40;;;;;;;6.47;73.05;98700.83;49313;1282;2015601;-60
2023/04/07 03:13:50;;;;;;;25.40;9.40;;;;;;;6.54;72.60;98697.20;52355;1280;2015743;-60
2023/04/07 03:16:53;;;;;;;25.20;8.90;;;;;;;6.51;73.38;98698.55;49391;1282;2015968;-60
2023/04/07 03:19:55;;;;;;;23.80;8.50;;;;;;;6.34;74.30;98696.20;61577;1282;2015312;-61
2023/04/07 03:22:58;;;;;;;;;;;;;;;6.52;73.12;98697.65;68302;1282;1015691;-60
2023/04/07 03:26:00;;;;;;;23.50;9.10;;;;;;;6.61;72.48;98695.81;68319;1282;1016957;-60
2023/04/07 03:29:03;;;;;;;23.60;8.20;;;;;;;6.65;72.41;98697.73;68323;1282;1015429;-60
2023/04/07 03:32:05;;;;;;;23.70;8.70;;;;;;;6.75;72.10;98698.11;68301;1282;1015490;-60
2023/04/07 03:35:07;;;;;;;25.80;9.30;;;;;;;6.70;72.30;98700.81;68307;1282;1016003;-60
2023/04/07 03:38:10;;;;;;;24.90;9.40;;;;;;;6.69;72.33;98706.08;68309;1282;1015274;-60
2023/04/07 03:41:12;;;;;;;23.90;8.40;;;;;;;6.64;72.78;98693.06;68323;1282;1016086;-60
2023/04/07 03:44:14;;;;;;;26.00;9.10;;;;;;;6.62;72.83;98694.56;68315;1282;1015594;-60
2023/04/07 03:47:17;;;;;;;23.90;8.50;;;;;;;6.64;72.79;98693.95;68299;1282;1015554;-60
2023/04/07 03:50:19;;;;;;;29.70;9.20;;;;;;;6.59;73.12;98694.35;68318;1282;1015572;-60
2023/04/07 03:53:22;;;;;;;23.90;8.60;;;;;;;6.55;73.13;98692.98;68299;1282;1015504;-60
2023/04/07 03:56:24;;;;;;;22.60;8.30;;;;;;;6.48;73.86;98697.80;68311;1282;1015750;-60
2023/04/07 03:59:26;;;;;;;24.10;8.70;;;;;;;6.50;73.47;98698.94;68318;1282;1015400;-60
2023/04/07 04:02:29;;;;;;;24.00;8.80;;;;;;;6.44;74.02;98700.43;68299;1282;1015652;-61
2023/04/07 04:05:31;;;;;;;26.50;8.60;;;;;;;6.42;74.04;98692.35;68291;1282;1015951;-60
2023/04/07 04:08:34;;;;;;;25.70;9.40;;;;;;;6.43;73.94;98689.51;68307;1282;1015639;-60
2023/04/07 04:11:36;;;;;;;23.90;8.70;;;;;;;6.51;73.55;98693.00;68316;1282;1015567;-61
2023/04/07 04:14:39;;;;;;;;;;;;;;;6.35;74.82;98696.86;68317;1282;1015392;-60
2023/04/07 04:17:41;;;;;;;24.40;8.70;;;;;;;6.25;75.39;98692.61;68321;1282;1015996;-60
2023/04/07 04:20:43;;;;;;;24.90;9.10;;;;;;;6.25;75.40;98689.14;68306;1282;1015872;-60
2023/04/07 04:23:46;;;;;;;25.10;9.60;;;;;;;6.36;74.81;98693.15;68302;1282;1015877;-60
2023/04/07 04:26:48;;;;;;;23.90;8.70;;;;;;;6.43;74.38;98691.81;68305;1282;1015569;-60
2023/04/07 04:29:51;;;;;;;24.40;8.90;;;;;;;6.45;74.15;98692.41;68294;1282;1015467;-60
2023/04/07 04:32:53;;;;;;;22.90;9.00;;;;;;;6.50;74.19;98694.59;68307;1282;1015930;-60
2023/04/07 04:35:55;;;;;;;25.50;9.20;;;;;;;6.50;74.08;98694.98;68315;1282;1015924;-60
2023/04/07 04:38:58;;;;;;;26.60;10.10;;;;;;;6.55;74.11;98696.98;68313;1282;1014962;-60
2023/04/07 04:42:00;;;;;;;27.30;10.00;;;;;;;6.47;74.27;98693.16;68297;1282;1015927;-60
2023/04/07 04:45:03;;;;;;;;;;;;;;;6.58;74.03;98694.75;68305;1282;1015512;-60
2023/04/07 04:48:05;;;;;;;25.10;8.90;;;;;;;6.48;74.26;98688.77;68315;1282;1015566;-60
2023/04/07 04:51:08;;;;;;;26.10;9.20;;;;;;;6.49;74.48;98681.42;68318;1282;1016135;-60
2023/04/07 04:54:10;;;;;;;25.50;9.60;;;;;;;6.47;74.40;98686.77;68312;1282;1015372;-60
2023/04/07 04:57:12;;;;;;;27.30;10.50;;;;;;;6.47;74.60;98691.42;68305;1282;1015657;-60
2023/04/07 05:00:15;;;;;;;26.90;9.90;;;;;;;6.51;74.30;98695.23;68306;1282;1015701;-60
2023/04/07 05:03:18;;;;;;;27.30;9.30;;;;;;;6.52;74.03;98705.46;68309;1282;1016184;-60
2023/04/07 05:06:21;;;;;;;27.30;9.60;;;;;;;6.56;73.84;98703.87;68297;1282;1015696;-60
2023/04/07 05:09:23;;;;;;;27.30;9.70;;;;;;;6.57;73.95;98705.03;68299;1282;1015568;-60
2023/04/07 05:12:26;;;;;;;26.40;10.40;;;;;;;6.60;73.99;98710.84;68292;1282;1015434;-60
2023/04/07 05:15:28;;;;;;;24.10;10.20;;;;;;;6.62;73.86;98713.34;68306;1282;1016268;-60
2023/04/07 05:18:31;;;;;;;26.60;11.10;;;;;;;6.59;74.02;98707.21;68310;1282;1016222;-60
2023/04/07 05:21:33;;;;;;;27.50;10.50;;;;;;;6.60;74.17;98707.52;68316;1282;1015905;-60
2023/04/07 05:24:37;;;;;;;27.80;10.70;;;;;;;6.62;73.92;98707.25;68310;1282;1015722;-60
2023/04/07 05:27:39;;;;;;;26.80;9.70;;;;;;;6.56;74.20;98711.87;68316;1282;1015321;-60
2023/04/07 05:30:42;;;;;;;25.30;9.40;;;;;;;6.53;74.52;98713.91;68307;1282;1015687;-61
2023/04/07 05:33:44;;;;;;;25.40;10.50;;;;;;;6.61;74.31;98716.16;68316;1282;1015600;-60
2023/04/07 05:36:47;;;;;;;25.00;9.10;;;;;;;6.62;74.02;98722.52;68317;1282;1015423;-60
2023/04/07 05:39:49;;;;;;;24.90;9.20;;;;;;;6.57;74.43;98717.92;68316;1282;1015643;-60
2023/04/07 05:42:51;;;;;;;25.70;10.00;;;;;;;6.61;74.31;98715.81;68282;1282;1015515;-60
2023/04/07 05:45:54;;;;;;;25.10;9.00;;;;;;;6.62;74.27;98715.79;68318;1282;1015497;-60
2023/04/07 05:48:56;;;;;;;24.40;9.30;;;;;;;6.71;73.94;98717.27;68303;1282;1015997;-60
2023/04/07 05:51:59;;;;;;;24.90;9.20;;;;;;;6.75;74.04;98713.92;68326;1282;1015576;-60
2023/04/07 05:55:01;;;;;;;23.90;9.20;;;;;;;6.82;73.68;98711.55;68302;1282;1015723;-60
2023/04/07 05:58:04;;;;;;;26.10;9.90;;;;;;;6.88;73.33;98712.31;68306;1282;1016024;-60
2023/04/07 06:01:06;;;;;;;26.40;9.50;;;;;;;6.76;73.71;98715.27;68313;1282;1016687;-60
2023/04/07 06:04:08;;;;;;;26.20;9.30;;;;;;;6.89;73.22;98717.27;68290;1282;1015999;-60
2023/04/07 06:07:11;;;;;;;22.30;8.60;;;;;;;7.05;72.57;98712.69;68316;1282;1015159;-60
2023/04/07 06:10:13;;;;;;;23.80;8.80;;;;;;;7.12;72.40;98711.13;68292;1282;1015623;-60
2023/04/07 06:13:15;;;;;;;24.50;8.80;;;;;;;7.23;71.67;98706.77;68325;1282;1015740;-60
2023/04/07 06:16:18;;;;;;;25.60;8.70;;;;;;;7.20;71.85;98703.13;68306;1282;1015820;-60
2023/04/07 06:19:20;;;;;;;26.80;9.70;;;;;;;7.15;72.25;98699.69;68290;1282;1015479;-60
2023/04/07 06:22:23;;;;;;;24.10;9.00;;;;;;;7.09;72.69;98702.60;68314;1282;1016198;-60
2023/04/07 06:25:26;;;;;;;24.50;8.80;;;;;;;6.86;74.29;98704.05;68310;1282;1015636;-60
2023/04/07 06:28:28;;;;;;;23.60;8.90;;;;;;;6.83;74.49;98702.82;68304;1282;1016051;-60
2023/04/07 06:31:31;;;;;;;21.60;7.70;;;;;;;6.95;73.95;98705.32;68310;1282;1016110;-60
2023/04/07 06:34:33;;;;;;;23.10;8.30;;;;;;;6.95;73.86;98705.17;68306;1282;1015894;-60
2023/04/07 06:37:35;;;;;;;24.50;8.80;;;;;;;6.94;74.14;98701.58;68294;1282;1015724;-60
2023/04/07 06:40:38;;;;;;;23.90;8.70;;;;;;;6.99;73.83;98696.14;68322;1282;1014414;-60
2023/04/07 06:43:40;;;;;;;23.80;8.70;;;;;;;6.82;74.60;98698.15;68303;1282;1015925;-60
2023/04/07 06:46:46;;;;;;;22.70;8.20;;;;;;;6.86;74.55;98697.63;68293;1282;1015444;-60
2023/04/07 06:49:49;;;;;;;24.20;8.50;;;;;;;6.97;73.90;98697.77;68302;1282;1016045;-60
2023/04/07 06:52:51;;;;;;;23.30;8.30;;;;;;;6.83;74.70;98693.42;68291;1282;1015891;-60
2023/04/07 06:55:54;;;;;;;23.80;8.60;;;;;;;6.75;75.29;98699.01;68318;1282;1015485;-60
2023/04/07 06:58:56;;;;;;;24.70;9.20;;;;;;;6.73;75.48;98690.77;68302;1282;1015820;-60
2023/04/07 07:01:59;;;;;;;24.70;9.30;;;;;;;6.72;75.69;98694.42;68302;1282;1015689;-60
2023/04/07 07:05:02;;;;;;;24.80;9.00;;;;;;;6.78;75.31;98691.73;68290;1282;1015652;-61
2023/04/07 07:08:05;;;;;;;25.90;8.50;;;;;;;6.65;76.30;98696.88;68304;1282;1015315;-60
2023/04/07 07:11:07;;;;;;;23.30;8.30;;;;;;;6.61;76.43;98699.48;68305;1282;1015815;-60
2023/04/07 07:14:10;;;;;;;25.00;9.20;;;;;;;6.62;76.57;98695.42;68292;1282;1016214;-60
2023/04/07 07:17:12;;;;;;;24.30;9.50;;;;;;;6.68;76.30;98696.05;68307;1282;1016404;-61
2023/04/07 07:20:14;;;;;;;24.60;8.50;;;;;;;6.84;75.74;98701.37;68299;1282;1015784;-60
2023/04/07 07:23:17;;;;;;;25.20;9.10;;;;;;;6.79;76.27;98701.62;68283;1282;1015734;-60
2023/04/07 07:26:19;;;;;;;25.30;9.10;;;;;;;6.92;75.54;98705.48;68308;1282;1014565;-60
2023/04/07 07:29:22;;;;;;;24.80;9.00;;;;;;;6.94;75.40;98703.47;68299;1282;1015568;-60
2023/04/07 07:32:24;;;;;;;25.70;9.10;;;;;;;6.91;75.81;98701.17;68307;1282;1015357;-61
2023/04/07 07:35:26;;;;;;;25.40;9.00;;;;;;;6.95;75.81;98702.92;68304;1282;1014737;-60
2023/04/07 07:38:29;;;;;;;25.40;9.00;;;;;;;6.93;75.77;98707.71;68307;1282;1016040;-60
2023/04/07 07:41:31;;;;;;;26.60;9.60;;;;;;;6.86;76.53;98707.36;68308;1282;1016069;-60
2023/04/07 07:44:33;;;;;;;25.80;9.40;;;;;;;6.99;76.24;98712.46;68298;1282;1015221;-60
2023/04/07 07:47:36;;;;;;;26.60;9.80;;;;;;;6.99;76.08;98710.90;68285;1282;1015727;-60
2023/04/07 07:50:39;;;;;;;24.80;9.20;;;;;;;7.05;75.75;98708.52;68296;1282;1015822;-60
2023/04/07 07:53:41;;;;;;;;;;;;;;;7.18;75.26;98703.73;68316;1282;1016303;-60
2023/04/07 07:56:44;;;;;;;25.00;9.20;;;;;;;7.28;74.93;98706.37;68295;1282;1014791;-60
2023/04/07 07:59:46;;;;;;;26.10;9.80;;;;;;;7.35;75.01;98710.92;68297;1282;1015685;-60
2023/04/07 08:02:48;;;;;;;26.80;9.90;;;;;;;7.36;74.99;98713.61;68299;1282;1015312;-60
2023/04/07 08:05:51;;;;;;;28.10;10.00;;;;;;;7.25;75.70;98713.61;68299;1282;1016190;-62
2023/04/07 08:08:53;;;;;;;29.50;10.60;;;;;;;7.34;75.30;98710.29;68308;1282;1015171;-60
2023/04/07 08:11:56;;;;;;;27.40;10.60;;;;;;;7.29;75.65;98707.71;68303;1282;1015291;-60
2023/04/07 08:14:58;;;;;;;28.10;10.10;;;;;;;7.27;76.08;98703.61;68308;1282;1016000;-61
2023/04/07 08:18:03;;;;;;;27.30;10.10;;;;;;;7.29;76.10;98703.02;68297;1282;1015482;-61
2023/04/07 08:21:05;;;;;;;28.30;10.10;;;;;;;7.36;75.96;98701.81;68295;1282;1016066;-60
2023/04/07 08:24:08;;;;;;;27.30;10.30;;;;;;;7.38;76.14;98698.91;68304;1282;1015919;-60
2023/04/07 08:27:10;;;;;;;26.90;9.60;;;;;;;7.28;76.70;98698.01;68311;1282;1014595;-60
2023/04/07 08:30:13;;;;;;;28.10;10.90;;;;;;;7.33;76.52;98699.52;68311;1282;1016018;-60
2023/04/07 08:33:15;;;;;;;25.90;10.50;;;;;;;7.41;76.25;98703.28;68301;1282;1015802;-60
2023/04/07 08:36:18;;;;;;;28.80;10.50;;;;;;;7.33;76.70;98704.04;68293;1282;1016207;-60
2023/04/07 08:39:21;;;;;;;;;;;;;;;7.32;76.88;98705.13;68316;1282;1016091;-60
2023/04/07 08:42:24;;;;;;;26.20;9.90;;;;;;;7.26;77.14;98705.23;68300;1282;1015903;-60
2023/04/07 08:45:26;;;;;;;25.50;9.80;;;;;;;7.41;76.48;98698.25;68318;1282;1015754;-60
2023/04/07 08:48:32;;;;;;;;;;;;;;;7.42;76.72;98701.65;68310;1282;1015414;-60
2023/04/07 08:51:34;;;;;;;26.30;9.10;;;;;;;7.40;76.98;98700.76;68315;1282;1014496;-60
2023/04/07 08:54:37;;;;;;;24.80;9.20;;;;;;;7.48;76.89;98697.91;68301;1282;1014816;-60
2023/04/07 08:57:39;;;;;;;25.70;9.40;;;;;;;7.68;75.94;98697.77;68303;1282;1015700;-60
2023/04/07 09:00:42;;;;;;;25.80;9.10;;;;;;;7.79;76.00;98695.27;68317;1282;1015434;-60
2023/04/07 09:03:44;;;;;;;26.60;9.60;;;;;;;7.76;75.98;98684.31;68307;1282;1016173;-60
2023/04/07 09:06:46;;;;;;;26.10;9.10;;;;;;;7.74;76.12;98688.04;68305;1282;1015866;-60
2023/04/07 09:09:49;;;;;;;26.90;9.20;;;;;;;7.75;76.14;98688.52;68308;1282;1015594;-60
2023/04/07 09:12:52;;;;;;;;;;;;;;;7.80;76.30;98689.46;68321;1282;1014274;-60
2023/04/07 09:15:55;;;;;;;26.80;9.10;;;;;;;7.66;76.93;98688.63;68318;1282;1015758;-60
2023/04/07 09:18:57;;;;;;;23.10;8.30;;;;;;;7.63;77.39;98689.13;68310;1282;1015971;-60
2023/04/07 09:21:59;;;;;;;26.30;7.90;;;;;;;7.73;77.13;98688.83;68308;1282;1015882;-60
2023/04/07 09:25:02;;;;;;;25.40;8.80;;;;;;;7.83;76.80;98689.51;68311;1282;1015490;-60
2023/04/07 09:28:04;;;;;;;26.20;9.60;;;;;;;7.97;76.55;98688.95;68319;1282;1015707;-60
2023/04/07 09:31:07;;;;;;;25.30;9.00;;;;;;;8.04;76.44;98689.30;68315;1282;1015219;-60
2023/04/07 09:34:09;;;;;;;26.30;9.60;;;;;;;7.97;76.65;98684.73;68308;1282;1015139;-60
2023/04/07 09:37:11;;;;;;;25.50;9.50;;;;;;;8.00;76.70;98691.27;68310;1282;1015889;-60
2023/04/07 09:40:14;;;;;;;30.00;10.00;;;;;;;8.09;76.12;98694.05;68308;1282;1015720;-60
2023/04/07 09:43:17;;;;;;;26.10;10.50;;;;;;;8.14;76.17;98699.94;68282;1282;1016299;-60
2023/04/07 09:46:19;;;;;;;26.30;9.90;;;;;;;8.01;76.58;98699.89;68311;1282;1015493;-60
2023/04/07 09:49:22;;;;;;;28.50;9.80;;;;;;;7.99;77.16;98697.17;68315;1282;1015866;-60
2023/04/07 09:52:25;;;;;;;26.30;9.40;;;;;;;8.09;76.63;98699.80;68307;1282;1016212;-60
2023/04/07 09:55:27;;;;;;;28.20;10.80;;;;;;;8.13;76.56;98697.48;68304;1282;1016209;-60
2023/04/07 09:58:30;;;;;;;26.00;9.50;;;;;;;8.14;76.73;98697.61;68319;1282;1015633;-60
2023/04/07 10:01:32;;;;;;;25.90;9.90;;;;;;;8.22;76.42;98685.72;68314;1282;1015967;-60
2023/04/07 10:04:34;;;;;;;27.70;10.70;;;;;;;8.15;76.95;98692.18;68306;1282;1016121;-60
2023/04/07 10:07:37;;;;;;;25.60;10.00;;;;;;;8.15;76.84;98689.40;68306;1282;1015526;-60
2023/04/07 10:10:39;;;;;;;28.20;9.90;;;;;;;8.27;76.60;98693.80;68321;1282;1015164;-60
2023/04/07 10:13:42;;;;;;;28.10;10.20;;;;;;;8.27;76.63;98689.13;68315;1282;1015214;-60
2023/04/07 10:16:44;;;;;;;;;;;;;;;8.42;76.53;98687.96;68331;1282;1015670;-60
2023/04/07 10:19:47;;;;;;;27.00;9.40;;;;;;;8.49;75.95;98689.17;68326;1282;1015559;-60
2023/04/07 10:22:50;;;;;;;24.70;8.90;;;;;;;8.46;76.05;98686.20;68313;1282;1015334;-60
2023/04/07 10:25:52;;;;;;;24.90;9.40;;;;;;;8.55;75.45;98686.40;68311;1282;1015471;-60
2023/04/07 10:28:55;;;;;;;;;;;;;;;8.51;75.81;98680.89;68322;1282;1015734;-60
2023/04/07 10:31:58;;;;;;;23.20;9.10;;;;;;;8.40;76.78;98677.79;68318;1282;1014178;-60
2023/04/07 10:35:00;;;;;;;23.90;8.50;;;;;;;8.45;76.75;98677.38;68324;1267;1015817;-60
2023/04/07 10:38:03;;;;;;;24.50;8.90;;;;;;;8.49;76.88;98676.96;68304;1282;1015970;-60
2023/04/07 10:41:05;;;;;;;24.00;9.10;;;;;;;8.50;77.29;98677.83;68312;1282;1015717;-60
2023/04/07 10:44:08;;;;;;;21.50;7.30;;;;;;;8.40;78.05;98676.42;68312;1282;1014565;-60
2023/04/07 10:47:11;;;;;;;24.30;7.90;;;;;;;8.36;78.27;98684.48;68318;1282;1015450;-60
2023/04/07 10:50:13;;;;;;;23.50;8.00;;;;;;;8.44;78.26;98688.41;68315;1282;1015623;-60
2023/04/07 10:53:16;;;;;;;21.10;6.60;;;;;;;8.41;78.68;98685.25;68322;1282;1016118;-60
2023/04/07 10:56:18;;;;;;;21.50;7.40;;;;;;;8.52;78.46;98690.76;68312;1282;1016642;-61
2023/04/07 10:59:26;;;;;;;21.70;7.20;;;;;;;8.70;77.49;98683.88;68316;1282;1014890;-60
2023/04/07 11:02:28;;;;;;;21.20;7.20;;;;;;;8.73;77.05;98688.38;68292;1282;1014889;-60
2023/04/07 11:05:31;;;;;;;23.10;7.80;;;;;;;8.90;76.43;98687.29;68314;1282;1015363;-60
2023/04/07 11:08:34;;;;;;;21.20;7.00;;;;;;;8.80;76.78;98693.60;68323;1282;1015939;-60
2023/04/07 11:11:37;;;;;;;21.30;7.20;;;;;;;8.99;76.01;98697.39;68305;1282;1015687;-60
2023/04/07 11:14:40;;;;;;;21.50;7.10;;;;;;;8.98;75.72;98701.45;68309;1282;1015736;-60
2023/04/07 11:17:43;;;;;;;21.80;7.30;;;;;;;8.92;76.36;98698.67;68323;1282;1016048;-60
2023/04/07 11:24:08;;;;;;;22.20;7.30;;;;;;;9.10;75.68;98695.91;68315;1282;1015228;-60
2023/04/07 11:27:11;;;;;;;23.30;7.20;;;;;;;9.02;76.12;98699.86;68321;1282;1014544;-60
2023/04/07 11:30:13;;;;;;;21.10;6.80;;;;;;;8.78;77.35;98698.79;68309;1282;1015554;-60
2023/04/07 11:33:16;;;;;;;23.70;7.50;;;;;;;8.82;77.37;98699.06;68318;1282;1015522;-60
2023/04/07 11:36:18;;;;;;;;;;;;;;;8.98;77.03;98698.68;68324;1282;1015771;-60
2023/04/07 11:39:21;;;;;;;23.50;8.00;;;;;;;9.07;76.21;98702.88;68323;1282;1015775;-60
2023/04/07 11:42:23;;;;;;;23.70;8.30;;;;;;;9.16;76.33;98702.73;68330;1282;1015342;-60
2023/04/07 11:45:25;;;;;;;21.60;7.60;;;;;;;9.06;76.28;98706.09;68296;1282;1015629;-60
2023/04/07 11:48:28;;;;;;;23.50;7.60;;;;;;;9.23;75.93;98701.61;68327;1282;1015845;-60
2023/04/07 11:51:31;;;;;;;20.60;7.00;;;;;;;9.31;76.35;98700.63;68295;1282;1015110;-60
2023/04/07 11:54:34;;;;;;;23.90;7.30;;;;;;;9.46;75.51;98702.80;68322;1282;1015638;-60
2023/04/07 11:57:36;;;;;;;21.20;7.30;;;;;;;9.52;75.90;98706.61;68315;1282;1015387;-60
2023/04/07 12:00:39;;;;;;;20.90;7.30;;;;;;;9.71;74.34;98703.20;68322;1282;1016120;-60
2023/04/07 12:03:45;;;;;;;20.40;6.80;;;;;;;9.90;74.09;98707.70;68325;1282;1015617;-60
2023/04/07 12:06:48;;;;;;;19.80;6.60;;;;;;;9.87;74.11;98705.09;68316;1282;1015951;-60
2023/04/07 12:09:50;;;;;;;20.30;6.40;;;;;;;9.82;73.75;98708.83;68336;1282;1016071;-60
2023/04/07 12:12:53;;;;;;;20.70;6.20;;;;;;;9.92;73.60;98708.96;68320;1282;1015468;-60
2023/04/07 12:15:55;;;;;;;18.80;6.10;;;;;;;10.02;73.78;98710.66;68319;1282;1015830;-60
2023/04/07 12:18:57;;;;;;;19.00;5.60;;;;;;;10.02;73.11;98713.08;68323;1282;1015440;-60
2023/04/07 12:22:00;;;;;;;18.90;5.90;;;;;;;9.93;72.90;98713.95;68311;1282;1015546;-60
2023/04/07 12:25:02;;;;;;;20.50;6.10;;;;;;;9.87;73.65;98714.98;68324;1282;1015581;-60
2023/04/07 12:28:05;;;;;;;18.90;5.90;;;;;;;9.92;73.34;98711.94;68318;1282;1016106;-60
2023/04/07 12:31:07;;;;;;;19.20;5.70;;;;;;;9.99;73.98;98713.27;68317;1282;1015124;-60
2023/04/07 12:34:10;;;;;;;18.70;5.60;;;;;;;10.05;73.71;98716.92;68327;1282;1016147;-60
2023/04/07 12:37:12;;;;;;;19.00;5.90;;;;;;;10.14;73.30;98720.92;68321;1282;1015640;-60
2023/04/07 12:40:16;;;;;;;17.20;5.30;;;;;;;10.19;72.62;98721.81;68315;1282;1015827;-60
2023/04/07 12:43:19;;;;;;;18.70;5.60;;;;;;;10.30;72.29;98719.27;68328;1282;1016011;-60
2023/04/07 12:46:21;;;;;;;18.90;5.60;;;;;;;10.17;73.70;98713.37;68327;1282;1014976;-60
2023/04/07 12:49:23;;;;;;;17.50;5.30;;;;;;;10.21;73.84;98714.02;68312;1259;1015316;-60
2023/04/07 12:52:26;;;;;;;18.10;5.50;;;;;;;10.26;73.20;98715.98;68312;1282;1015196;-60
2023/04/07 12:55:28;;;;;;;17.90;5.40;;;;;;;10.36;73.09;98714.38;68318;1282;1015525;-60
2023/04/07 12:58:32;;;;;;;16.00;5.10;;;;;;;10.52;74.01;98715.09;68328;1282;1015980;-60
2023/04/07 13:01:35;;;;;;;18.10;5.30;;;;;;;10.46;73.02;98716.73;68310;1282;1016276;-60
2023/04/07 13:04:42;;;;;;;18.80;5.40;;;;;;;10.60;73.59;98717.06;68311;1282;1015638;-60
2023/04/07 13:07:45;;;;;;;17.80;5.50;;;;;;;10.79;73.00;98723.95;68310;1282;1015940;-60
2023/04/07 13:10:48;;;;;;;16.90;5.30;;;;;;;10.83;72.09;98723.17;68323;1282;1015248;-60
2023/04/07 13:13:50;;;;;;;17.00;5.60;;;;;;;10.71;72.57;98723.22;68323;1282;1015754;-60
2023/04/07 13:16:52;;;;;;;17.90;5.70;;;;;;;10.77;72.62;98724.41;68325;1282;1015692;-60
2023/04/07 13:19:55;;;;;;;18.60;6.00;;;;;;;10.79;72.59;98725.14;68313;1282;1015201;-60
2023/04/07 13:22:57;;;;;;;;;;;;;;;10.87;72.71;98729.02;65762;1282;6366665;-60
2023/04/07 13:26:00;;;;;;;18.20;6.20;;;;;;;10.97;72.72;98734.91;68343;1282;1015568;-60
2023/04/07 13:29:02;;;;;;;18.60;5.90;;;;;;;10.86;72.79;98734.19;68333;1282;1016282;-61
2023/04/07 13:32:05;;;;;;;19.20;6.20;;;;;;;10.90;72.58;98731.42;68316;1282;1015684;-60
2023/04/07 13:35:08;;;;;;;17.80;5.70;;;;;;;10.95;72.49;98729.39;68318;1282;1016109;-60
2023/04/07 13:38:10;;;;;;;19.90;6.30;;;;;;;11.15;71.88;98728.97;68314;1282;1016079;-60
2023/04/07 13:41:13;;;;;;;20.30;6.50;;;;;;;11.17;72.08;98723.45;68320;1282;1016053;-60
2023/04/07 13:44:15;;;;;;;18.80;6.60;;;;;;;11.15;71.76;98726.01;68324;1282;1015190;-60
2023/04/07 13:47:19;;;;;;;20.80;7.60;;;;;;;11.28;71.99;98723.58;68306;1282;1016092;-60
2023/04/07 13:50:21;;;;;;;21.40;7.20;;;;;;;11.37;71.72;98723.15;68329;1282;1015940;-60
2023/04/07 13:53:23;;;;;;;20.50;7.10;;;;;;;11.44;71.33;98722.91;68332;1282;1016293;-60
2023/04/07 13:56:26;;;;;;;22.10;7.80;;;;;;;11.42;71.91;98722.83;68324;1282;1015350;-60
2023/04/07 13:59:28;;;;;;;22.40;7.90;;;;;;;11.34;71.66;98722.51;68316;1282;1015714;-60
2023/04/07 14:02:31;;;;;;;22.30;7.70;;;;;;;11.36;72.03;98716.23;68308;1282;1015600;-60